PAFA/FAI METAR and TAF weather

Enter ICAO airport designator
Station Type Date Time Source
PAFA METAR 2020/10/22 02:53 UTC NOAA

PAFA 220253Z 00000KT 10SM SCT010 BKN021 BKN028 M03/M06 A3070 RMK AO2 SLP407 60000 T10331061 56007


Station Type Date Time Source
PAFA Decoded METAR 2020/10/22 02:53 UTC NOAA

Fairbanks, Fairbanks International Airport, AK, United States (PAFA) 64-48-14N 147-52-34W 140M
Oct 21, 2020 - 10:53 PM EDT / 2020.10.22 0253 UTC
Wind: Calm:0
Visibility: 10 mile(s):0
Sky conditions: mostly cloudy
Temperature: 26.1 F (-3.3 C)
Dew Point: 21.0 F (-6.1 C)
Relative Humidity: 80%
Pressure (altimeter): 30.7 in. Hg (1039 hPa)
Pressure tendency: 0.02 inches (0.7 hPa) lower than three hours ago
ob: PAFA 220253Z 00000KT 10SM SCT010 BKN021 BKN028 M03/M06 A3070 RMK AO2 SLP407 60000 T10331061 56007
cycle: 3

Station Type Date Time Source
PAFA TAF 2020/10/21 19:59 UTC NOAA

TAF
AMD PAFA 211859Z 2119/2224 00000KT 2SM -FZDZSN BR BKN008 BKN010 OVC025
TEMPO 2119/2122 5SM -FZDZSN BR SCT005 BKN010 OVC025
FM212200 00000KT 6SM BR OVC015
FM220000 03003KT P6SM BKN015
FM220800 05003KT P6SM SCT015

Example: see airport list